Time;durP1;ratioP1;P1;durP2;ratioP2;P2;SDS_P1;SDS_P2;PMS_P1;PMS_P2;Temp;Humidity;BMP_temperature;BMP_pressure;BME280_temperature;BME280_humidity;BME280_pressure;Samples;Min_cycle;Max_cycle;Signal;HPM_P1;HPM_P2
2024/01/02 00:00:54;;;;;;;9.52;1.58;;;;;;;5.78;100.00;99880.66;5098961;28;20273;-86
2024/01/02 00:03:25;;;;;;;11.25;1.33;;;;;;;5.79;100.00;99863.50;5099487;28;20035;-86
2024/01/02 00:05:58;;;;;;;12.57;1.63;;;;;;;5.80;100.00;99865.16;5082073;28;20028;-86
2024/01/02 00:08:24;;;;;;;14.15;1.42;;;;;;;5.82;100.00;99856.88;5099622;28;20116;-87
2024/01/02 00:10:49;;;;;;;12.68;1.50;;;;;;;5.86;100.00;99858.13;5098746;28;20440;-86
2024/01/02 00:13:15;;;;;;;10.67;1.23;;;;;;;5.86;100.00;99844.66;5115618;28;20023;-86
2024/01/02 00:15:40;;;;;;;8.73;0.90;;;;;;;5.87;100.00;99835.53;5082692;28;20035;-86
2024/01/02 00:18:08;;;;;;;13.07;0.88;;;;;;;5.88;100.00;99823.72;5117042;28;20028;-86
2024/01/02 00:20:33;;;;;;;9.25;1.30;;;;;;;5.91;100.00;99819.78;5082184;28;20039;-85
2024/01/02 00:23:01;;;;;;;7.22;1.17;;;;;;;5.97;100.00;99813.59;5098442;28;20459;-86
2024/01/02 00:25:34;;;;;;;11.68;1.10;;;;;;;5.95;100.00;99792.25;5116557;28;20090;-86
2024/01/02 00:28:02;;;;;;;15.95;1.30;;;;;;;5.95;100.00;99778.78;5082839;28;20032;-87
2024/01/02 00:30:31;;;;;;;9.40;0.95;;;;;;;5.99;100.00;99759.53;5099278;28;20023;-86
2024/01/02 00:32:57;;;;;;;7.32;1.08;;;;;;;5.98;100.00;99753.34;5099284;28;20074;-86
2024/01/02 00:35:22;;;;;;;12.37;0.97;;;;;;;5.97;100.00;99743.59;5116807;28;20031;-86
2024/01/02 00:37:48;;;;;;;13.53;1.30;;;;;;;5.95;100.00;99730.31;5098839;28;20028;-86
2024/01/02 00:40:13;;;;;;;5.63;0.75;;;;;;;5.98;100.00;99723.72;5098467;28;20483;-86
2024/01/02 00:42:39;;;;;;;11.07;0.87;;;;;;;5.99;100.00;99695.72;5116943;28;20456;-86
2024/01/02 00:45:05;;;;;;;10.33;0.80;;;;;;;6.00;100.00;99677.72;5116329;28;20051;-86
2024/01/02 00:47:31;;;;;;;6.20;0.68;;;;;;;5.99;100.00;99673.38;5081531;28;20031;-86
2024/01/02 00:49:56;;;;;;;6.35;1.08;;;;;;;5.99;100.00;99668.81;5116260;28;20020;-86
2024/01/02 00:52:24;;;;;;;4.07;0.70;;;;;;;5.99;100.00;99652.66;5098038;28;20402;-86
2024/01/02 00:54:51;;;;;;;6.78;0.88;;;;;;;5.99;100.00;99641.88;5114786;28;20119;-86
2024/01/02 00:57:17;;;;;;;4.27;0.70;;;;;;;6.03;100.00;99648.50;5116451;28;20058;-86
2024/01/02 00:59:42;;;;;;;6.25;1.02;;;;;;;6.02;100.00;99633.38;5082045;28;20039;-86
2024/01/02 01:02:15;;;;;;;8.70;0.97;;;;;;;6.03;100.00;99615.34;5098028;28;20055;-86
2024/01/02 01:04:46;;;;;;;3.60;0.47;;;;;;;6.04;100.00;99595.44;5116792;28;20027;-86
2024/01/02 01:07:12;;;;;;;5.05;0.65;;;;;;;6.05;100.00;99603.31;5097811;28;20421;-86
2024/01/02 01:09:38;;;;;;;3.63;0.50;;;;;;;6.06;100.00;99596.88;5097651;28;20023;-86
2024/01/02 01:12:07;;;;;;;4.00;0.50;;;;;;;6.06;100.00;99567.28;5097572;28;20130;-86
2024/01/02 01:14:34;;;;;;;6.88;0.60;;;;;;;6.09;100.00;99580.28;5097514;28;20027;-86
2024/01/02 01:16:59;;;;;;;5.60;0.85;;;;;;;6.09;100.00;99574.91;5098076;28;20023;-86
2024/01/02 01:19:28;;;;;;;5.33;0.53;;;;;;;6.06;100.00;99561.88;5080347;28;20157;-86
2024/01/02 01:21:53;;;;;;;8.32;0.57;;;;;;;6.09;100.00;99563.31;5116082;28;20085;-86
2024/01/02 01:24:21;;;;;;;3.40;0.40;;;;;;;6.09;100.00;99550.69;5098083;28;20032;-86
2024/01/02 01:26:47;;;;;;;1.80;0.50;;;;;;;6.12;100.00;99535.97;5097867;28;20063;-86
2024/01/02 01:29:12;;;;;;;6.80;0.30;;;;;;;6.13;100.00;99526.84;5097802;28;20082;-86
2024/01/02 01:31:38;;;;;;;2.50;0.40;;;;;;;6.15;100.00;99511.28;5098051;28;20524;-86
2024/01/02 01:34:04;;;;;;;1.75;0.40;;;;;;;6.14;100.00;99505.09;5097351;28;20080;-86
2024/01/02 01:36:29;;;;;;;3.15;0.30;;;;;;;6.15;100.00;99484.34;5114102;28;20122;-86
2024/01/02 01:38:55;;;;;;;3.17;0.40;;;;;;;6.17;100.00;99482.28;5097413;28;20122;-87
2024/01/02 01:41:21;;;;;;;3.03;0.45;;;;;;;6.16;100.00;99483.31;5097074;28;20533;-86
2024/01/02 01:43:46;;;;;;;2.70;0.30;;;;;;;6.17;100.00;99473.34;5080241;28;20066;-86
2024/01/02 01:46:14;;;;;;;1.42;0.20;;;;;;;6.17;100.00;99463.44;5096805;28;20491;-86
2024/01/02 01:48:43;;;;;;;2.17;0.50;;;;;;;6.18;100.00;99448.09;5097089;28;20028;-86
2024/01/02 01:51:08;;;;;;;1.20;0.30;;;;;;;6.15;100.00;99442.06;5097289;28;20379;-86
2024/01/02 01:53:35;;;;;;;1.20;0.28;;;;;;;6.18;100.00;99423.84;5097207;28;20031;-86
2024/01/02 01:56:02;;;;;;;2.65;0.40;;;;;;;6.15;100.00;99420.53;5097223;28;20072;-86
2024/01/02 01:58:31;;;;;;;3.10;0.30;;;;;;;6.17;100.00;99417.66;5113728;28;20059;-85
2024/01/02 02:00:57;;;;;;;1.50;0.30;;;;;;;6.20;100.00;99405.59;5096593;28;20027;-86
2024/01/02 02:03:26;;;;;;;3.38;0.38;;;;;;;6.19;100.00;99398.56;5080310;28;20058;-86
2024/01/02 02:05:52;;;;;;;5.05;0.50;;;;;;;6.18;100.00;99389.66;5096157;28;20027;-86
2024/01/02 02:08:17;;;;;;;1.40;0.30;;;;;;;6.18;100.00;99383.44;5114785;28;20399;-85
2024/01/02 02:10:42;;;;;;;3.90;0.30;;;;;;;6.18;100.00;99384.25;5096823;28;20040;-86
2024/01/02 02:13:11;;;;;;;2.95;0.25;;;;;;;6.21;100.00;99381.13;5096176;28;20031;-86
2024/01/02 02:15:41;;;;;;;1.33;0.30;;;;;;;6.22;100.00;99371.19;5097316;28;20043;-86
2024/01/02 02:18:07;;;;;;;1.25;0.20;;;;;;;6.25;100.00;99352.69;5096911;28;20075;-87
2024/01/02 02:20:33;;;;;;;2.78;0.30;;;;;;;6.25;100.00;99350.00;5096610;28;20031;-86
2024/01/02 02:22:58;;;;;;;2.47;0.30;;;;;;;6.29;100.00;99342.31;5096355;28;20024;-86
2024/01/02 02:25:23;;;;;;;1.50;0.20;;;;;;;6.28;100.00;99329.88;5096385;28;20429;-86
2024/01/02 02:27:49;;;;;;;0.80;0.30;;;;;;;6.27;100.00;99318.25;5096799;28;20065;-87
2024/01/02 02:30:15;;;;;;;0.47;0.20;;;;;;;6.30;100.00;99312.47;5096365;28;20327;-86
2024/01/02 02:32:43;;;;;;;1.20;0.40;;;;;;;6.31;100.00;99311.38;5114943;28;20080;-86
2024/01/02 02:35:11;;;;;;;1.15;0.20;;;;;;;6.34;100.00;99312.00;5114294;28;20076;-86
2024/01/02 02:37:40;;;;;;;0.22;0.20;;;;;;;6.37;100.00;99298.91;5114262;28;20089;-86
2024/01/02 02:40:06;;;;;;;1.00;0.40;;;;;;;6.36;100.00;99272.19;5097252;28;20368;-86
2024/01/02 02:42:31;;;;;;;0.50;0.20;;;;;;;6.38;100.00;99270.06;5079231;28;20118;-87
2024/01/02 02:45:00;;;;;;;2.47;0.30;;;;;;;6.42;100.00;99260.50;5096979;28;20123;-85
2024/01/02 02:47:25;;;;;;;0.82;0.20;;;;;;;6.38;100.00;99265.53;5095840;28;20100;-85
2024/01/02 02:49:52;;;;;;;1.55;0.30;;;;;;;6.42;100.00;99252.41;5096122;28;20471;-85
2024/01/02 02:52:19;;;;;;;0.40;0.20;;;;;;;6.41;100.00;99248.91;5096969;28;20027;-86
2024/01/02 02:54:44;;;;;;;2.38;0.20;;;;;;;6.42;100.00;99247.03;5096060;28;20030;-86
2024/01/02 02:57:12;;;;;;;0.47;0.20;;;;;;;6.44;100.00;99236.84;5114295;28;20126;-86
2024/01/02 02:59:41;;;;;;;0.65;0.20;;;;;;;6.44;100.00;99209.91;5113968;28;20062;-85
2024/01/02 03:02:06;;;;;;;0.30;0.20;;;;;;;6.43;100.00;99192.91;5114624;28;20081;-86
2024/01/02 03:04:34;;;;;;;0.40;0.30;;;;;;;6.46;100.00;99189.75;5096600;28;20032;-86
2024/01/02 03:06:59;;;;;;;1.65;0.20;;;;;;;6.47;100.00;99188.72;5079576;28;20431;-86
2024/01/02 03:09:25;;;;;;;1.03;0.20;;;;;;;6.48;100.00;99165.28;5080250;28;20126;-86
2024/01/02 03:11:50;;;;;;;0.70;0.20;;;;;;;6.53;100.00;99156.53;5096066;28;20036;-86
2024/01/02 03:14:16;;;;;;;2.35;0.20;;;;;;;6.51;100.00;99154.06;5095942;28;20028;-87
2024/01/02 03:16:42;;;;;;;0.50;0.20;;;;;;;6.53;100.00;99149.25;5095917;28;20034;-86
2024/01/02 03:19:07;;;;;;;1.88;0.20;;;;;;;6.55;100.00;99139.06;5117949;28;20062;-86
2024/01/02 03:21:36;;;;;;;0.30;0.20;;;;;;;6.57;100.00;99136.13;5100328;28;20593;-86
2024/01/02 03:24:02;;;;;;;0.65;0.20;;;;;;;6.64;100.00;99115.28;5100670;28;20110;-86
2024/01/02 03:26:28;;;;;;;1.60;0.20;;;;;;;6.64;100.00;99110.75;5117869;28;20023;-87
2024/01/02 03:28:53;;;;;;;0.40;0.20;;;;;;;6.69;100.00;99099.25;5100014;28;20036;-86
2024/01/02 03:31:19;;;;;;;0.80;0.20;;;;;;;6.70;100.00;99102.78;5116917;28;20284;-86
2024/01/02 03:33:44;;;;;;;0.20;0.20;;;;;;;6.72;100.00;99098.78;5118162;28;20036;-86
2024/01/02 03:36:20;;;;;;;0.40;0.20;;;;;;;6.74;100.00;99088.59;5099678;28;20035;-87
2024/01/02 03:38:49;;;;;;;0.60;0.20;;;;;;;6.80;100.00;99082.25;5117702;28;20027;-86
2024/01/02 03:41:14;;;;;;;0.38;0.10;;;;;;;6.80;100.00;99086.84;5099570;28;20036;-86
2024/01/02 03:43:40;;;;;;;0.20;0.20;;;;;;;6.84;100.00;99083.44;5117867;28;20422;-85
2024/01/02 03:46:06;;;;;;;0.30;0.20;;;;;;;6.87;100.00;99078.66;5117532;28;20072;-86
2024/01/02 03:48:32;;;;;;;0.80;0.20;;;;;;;6.87;100.00;99079.47;5099057;28;20027;-87
2024/01/02 03:50:57;;;;;;;0.30;0.20;;;;;;;6.93;100.00;99073.13;5100008;28;20096;-86
2024/01/02 03:53:23;;;;;;;0.63;0.20;;;;;;;6.98;100.00;99070.56;5099053;28;20062;-86
2024/01/02 03:55:48;;;;;;;0.50;0.20;;;;;;;7.02;100.00;99070.91;5099376;28;20023;-86
2024/01/02 03:58:14;;;;;;;0.45;0.20;;;;;;;7.00;100.00;99063.03;5099219;28;20031;-87
2024/01/02 04:00:39;;;;;;;0.90;0.30;;;;;;;7.05;100.00;99061.53;5116242;28;20027;-86
2024/01/02 04:03:06;;;;;;;0.30;0.30;;;;;;;7.11;100.00;99056.00;5117516;28;20023;-86
2024/01/02 04:05:31;;;;;;;0.43;0.30;;;;;;;7.16;100.00;99047.19;5117061;28;20027;-85
2024/01/02 04:07:57;;;;;;;0.38;0.30;;;;;;;7.18;100.00;99048.59;5117157;28;20030;-86
2024/01/02 04:10:22;;;;;;;0.50;0.33;;;;;;;7.25;100.00;99035.00;5099188;28;20118;-86
2024/01/02 04:12:51;;;;;;;1.20;0.40;;;;;;;7.33;100.00;99040.00;5117333;28;20024;-85
2024/01/02 04:15:16;;;;;;;0.60;0.40;;;;;;;7.33;100.00;99031.09;5117240;28;20084;-86
2024/01/02 04:17:42;;;;;;;0.80;0.50;;;;;;;7.33;100.00;99033.78;5100139;28;20027;-86
2024/01/02 04:20:10;;;;;;;0.60;0.50;;;;;;;7.36;100.00;99027.91;5117227;28;20051;-87
2024/01/02 04:22:43;;;;;;;0.50;0.40;;;;;;;7.43;100.00;99025.91;5099454;28;20488;-86
2024/01/02 04:25:11;;;;;;;0.40;0.30;;;;;;;7.47;100.00;99013.59;5082846;28;20036;-86
2024/01/02 04:27:36;;;;;;;0.70;0.40;;;;;;;7.50;100.00;99026.59;5098470;28;20032;-87
2024/01/02 04:30:02;;;;;;;1.15;0.50;;;;;;;7.51;100.00;99014.75;5116655;28;20057;-87
2024/01/02 04:32:28;;;;;;;0.70;0.30;;;;;;;7.54;100.00;99029.63;5098616;28;20028;-87
2024/01/02 04:34:56;;;;;;;0.80;0.40;;;;;;;7.61;100.00;99024.91;5098287;28;20038;-87
2024/01/02 04:37:23;;;;;;;0.70;0.40;;;;;;;7.66;100.00;99022.31;5099410;28;20042;-87
2024/01/02 04:39:49;;;;;;;1.08;0.40;;;;;;;7.68;100.00;99009.38;5116475;28;20086;-87
2024/01/02 04:42:17;;;;;;;0.60;0.40;;;;;;;7.71;100.00;99010.78;5116499;28;20027;-87
2024/01/02 04:44:43;;;;;;;1.17;0.30;;;;;;;7.79;100.00;99026.59;5116317;28;20024;-86
2024/01/02 04:47:10;;;;;;;0.70;0.32;;;;;;;7.81;100.00;99018.25;5116704;28;20053;-86
2024/01/02 04:49:38;;;;;;;0.50;0.40;;;;;;;7.86;100.00;99018.34;5098618;28;20036;-86
2024/01/02 04:52:04;;;;;;;0.45;0.28;;;;;;;7.92;100.00;99019.25;5097991;28;20027;-86
2024/01/02 04:54:29;;;;;;;0.43;0.30;;;;;;;7.95;100.00;99011.47;5098012;28;20027;-86
2024/01/02 04:56:57;;;;;;;0.60;0.40;;;;;;;8.00;100.00;99011.59;5099100;28;20032;-86
2024/01/02 04:59:22;;;;;;;0.50;0.30;;;;;;;8.10;100.00;99002.00;5098083;28;20032;-86
2024/01/02 05:01:48;;;;;;;1.07;0.40;;;;;;;8.12;100.00;99014.22;5114779;28;20073;-86
2024/01/02 05:04:13;;;;;;;0.65;0.30;;;;;;;8.20;100.00;99013.81;5098109;28;20042;-86
2024/01/02 05:06:39;;;;;;;0.70;0.30;;;;;;;8.26;100.00;99018.22;5116618;28;20111;-86
2024/01/02 05:09:04;;;;;;;0.33;0.30;;;;;;;8.36;100.00;99030.28;5097718;28;20023;-86
2024/01/02 05:11:35;;;;;;;0.70;0.40;;;;;;;8.39;100.00;99035.19;5116229;28;20055;-86
2024/01/02 05:14:01;;;;;;;1.27;0.50;;;;;;;8.46;100.00;99030.47;5114923;28;20027;-86
2024/01/02 05:16:28;;;;;;;1.10;0.60;;;;;;;8.50;100.00;99038.91;5115781;28;20038;-86
2024/01/02 05:18:53;;;;;;;1.52;0.50;;;;;;;8.55;100.00;99030.88;5080917;28;20389;-86
2024/01/02 05:21:19;;;;;;;1.10;0.57;;;;;;;8.60;100.00;99039.06;5097790;28;20039;-85
2024/01/02 05:23:47;;;;;;;0.80;0.50;;;;;;;8.66;100.00;99040.78;5098061;28;20034;-86
2024/01/02 05:26:13;;;;;;;1.20;0.60;;;;;;;8.70;100.00;99052.75;5115446;28;20058;-86
2024/01/02 05:28:38;;;;;;;1.30;0.50;;;;;;;8.75;100.00;99041.19;5097779;28;20451;-86
2024/01/02 05:31:04;;;;;;;0.98;0.70;;;;;;;8.81;100.00;99028.56;5081142;28;20059;-86
2024/01/02 05:33:30;;;;;;;1.40;0.75;;;;;;;8.82;100.00;99027.50;5097184;28;20062;-86
2024/01/02 05:35:56;;;;;;;2.22;0.90;;;;;;;8.88;100.00;99034.63;5097440;28;20421;-86
2024/01/02 05:38:21;;;;;;;1.67;0.70;;;;;;;8.93;100.00;99037.38;5115660;28;20110;-86
2024/01/02 05:40:46;;;;;;;1.17;0.63;;;;;;;8.99;100.00;99017.47;5096552;28;20038;-86
2024/01/02 05:43:12;;;;;;;1.03;0.50;;;;;;;9.04;100.00;99031.06;5097434;28;20024;-86
2024/01/02 05:45:37;;;;;;;0.85;0.60;;;;;;;9.09;100.00;99038.41;5097719;28;20032;-86
2024/01/02 05:48:03;;;;;;;1.83;0.60;;;;;;;9.12;100.00;99044.16;5097529;28;20176;-85
2024/01/02 05:50:29;;;;;;;1.00;0.50;;;;;;;9.17;100.00;99040.69;5097334;28;20034;-86
2024/01/02 05:52:54;;;;;;;0.88;0.50;;;;;;;9.19;100.00;99068.31;5080184;28;20038;-86
2024/01/02 05:55:20;;;;;;;0.97;0.50;;;;;;;9.22;100.00;99062.41;5097438;28;20027;-85
2024/01/02 05:57:45;;;;;;;2.40;0.60;;;;;;;9.24;100.00;99060.28;5115355;28;20038;-86
2024/01/02 06:00:11;;;;;;;0.90;0.40;;;;;;;9.26;100.00;99062.75;5115125;28;20733;-86
2024/01/02 06:02:39;;;;;;;0.75;0.50;;;;;;;9.27;100.00;99062.50;5115020;28;20031;-86
2024/01/02 06:05:08;;;;;;;0.95;0.50;;;;;;;9.28;100.00;99064.09;5096668;28;20031;-85
2024/01/02 06:07:34;;;;;;;1.02;0.50;;;;;;;9.30;100.00;99061.97;5115064;28;20118;-85
2024/01/02 06:09:59;;;;;;;0.90;0.50;;;;;;;9.33;100.00;99051.72;5114724;28;20030;-85
2024/01/02 06:12:27;;;;;;;0.80;0.50;;;;;;;9.38;100.00;99070.75;5115895;28;20023;-85
2024/01/02 06:14:53;;;;;;;2.45;0.50;;;;;;;9.37;100.00;99083.44;5078583;28;20044;-85
2024/01/02 06:17:18;;;;;;;1.00;0.50;;;;;;;9.40;100.00;99068.59;5096537;28;20034;-85
2024/01/02 06:19:44;;;;;;;3.03;0.40;;;;;;;9.44;100.00;99091.38;5096224;28;20056;-86
2024/01/02 06:22:22;;;;;;;1.77;0.43;;;;;;;9.44;100.00;99089.47;5089035;27;1294171;-86
2024/01/02 06:24:47;;;;;;;1.30;0.60;;;;;;;9.43;100.00;99097.84;5109896;28;20034;-85
2024/01/02 06:27:13;;;;;;;1.60;0.70;;;;;;;9.46;100.00;99078.41;5111072;28;20032;-85
2024/01/02 06:29:38;;;;;;;1.43;0.80;;;;;;;9.49;100.00;99099.56;5093225;28;20100;-85
2024/01/02 06:32:04;;;;;;;3.50;1.45;;;;;;;9.52;100.00;99114.50;5110433;28;20032;-85
2024/01/02 06:34:29;;;;;;;3.63;1.30;;;;;;;9.52;100.00;99115.28;5111240;28;20418;-86
2024/01/02 06:37:19;;;;;;;3.80;1.60;;;;;;;9.54;100.00;99113.19;5111318;28;20032;-84
2024/01/02 06:39:44;;;;;;;6.00;2.50;;;;;;;9.56;100.00;99108.31;5110956;28;20036;-84
2024/01/02 06:42:09;;;;;;;8.50;2.80;;;;;;;9.58;100.00;99108.91;5111402;28;20036;-85
2024/01/02 06:44:35;;;;;;;7.93;2.50;;;;;;;9.59;100.00;99099.69;5092584;28;20476;-85
2024/01/02 06:47:00;;;;;;;8.93;2.90;;;;;;;9.60;100.00;99112.16;5110240;28;20286;-85
2024/01/02 06:49:28;;;;;;;11.57;3.60;;;;;;;9.66;100.00;99124.69;5111354;28;20047;-93
2024/01/02 06:51:59;;;;;;;10.65;3.33;;;;;;;9.64;100.00;99107.88;5110710;28;20034;-93
2024/01/02 06:54:32;;;;;;;9.40;3.63;;;;;;;9.66;100.00;99107.63;5110678;28;20031;-95
2024/01/02 06:57:21;;;;;;;14.75;4.30;;;;;;;9.66;100.00;99119.28;5093035;28;20070;-94
2024/01/02 06:59:47;;;;;;;13.65;4.50;;;;;;;9.68;100.00;99129.03;5095108;28;20032;-94
2024/01/02 07:02:13;;;;;;;15.57;4.95;;;;;;;9.71;100.00;99125.84;5110247;28;20088;-92
2024/01/02 07:04:38;;;;;;;15.65;5.32;;;;;;;9.73;100.00;99148.91;5110450;28;20418;-92
2024/01/02 07:07:04;;;;;;;13.40;5.03;;;;;;;9.74;100.00;99131.56;5110273;28;20096;-91
2024/01/02 07:09:29;;;;;;;17.60;5.65;;;;;;;9.75;100.00;99145.94;5108879;28;20135;-87
2024/01/02 07:11:58;;;;;;;20.37;6.83;;;;;;;9.75;100.00;99148.63;5109031;28;20059;-89
2024/01/02 07:14:23;;;;;;;17.27;6.70;;;;;;;9.76;100.00;99150.28;5110180;28;20035;-88
2024/01/02 07:16:49;;;;;;;21.17;6.07;;;;;;;9.77;100.00;99147.31;5109506;28;20028;-87
2024/01/02 07:19:17;;;;;;;20.63;5.78;;;;;;;9.79;100.00;99141.66;5108536;28;20038;-87
2024/01/02 07:22:09;;;;;;;24.27;6.25;;;;;;;9.79;100.00;99145.19;5109027;28;20044;-86
2024/01/02 07:24:34;;;;;;;21.97;6.50;;;;;;;9.81;100.00;99147.63;5109540;28;20028;-85
2024/01/02 07:27:00;;;;;;;18.95;5.35;;;;;;;9.81;100.00;99145.72;5110436;28;20370;-86
2024/01/02 07:29:27;;;;;;;21.03;6.17;;;;;;;9.83;100.00;99164.44;5110816;28;20031;-85
2024/01/02 07:31:56;;;;;;;21.02;5.82;;;;;;;9.84;100.00;99174.22;5105328;28;20028;-86
2024/01/02 07:34:22;;;;;;;22.50;5.77;;;;;;;9.82;100.00;99176.38;5085228;28;20058;-86
2024/01/02 07:36:48;;;;;;;18.80;5.90;;;;;;;9.83;100.00;99167.16;5095179;28;20032;-86
2024/01/02 07:39:14;;;;;;;16.55;5.60;;;;;;;9.83;100.00;99161.72;5096385;28;20032;-86
2024/01/02 07:41:39;;;;;;;16.97;6.47;;;;;;;9.86;100.00;99184.78;5095379;28;20471;-86
2024/01/02 07:44:07;;;;;;;20.10;5.78;;;;;;;9.87;100.00;99181.03;5095052;28;20036;-86
2024/01/02 07:46:33;;;;;;;17.17;5.22;;;;;;;9.86;100.00;99172.06;5094756;28;20040;-86
2024/01/02 07:48:58;;;;;;;20.55;5.90;;;;;;;9.87;100.00;99176.41;5094437;28;20032;-86
2024/01/02 07:51:24;;;;;;;20.20;5.10;;;;;;;9.87;100.00;99184.53;5094945;28;20028;-86
2024/01/02 07:53:49;;;;;;;19.80;5.57;;;;;;;9.85;100.00;99189.41;5094939;28;20024;-86
2024/01/02 07:56:19;;;;;;;22.70;5.97;;;;;;;9.89;100.00;99189.72;5096292;28;20268;-86
2024/01/02 07:58:47;;;;;;;17.42;5.47;;;;;;;9.87;100.00;99181.84;5094934;28;20043;-86
2024/01/02 08:01:13;;;;;;;16.07;4.73;;;;;;;9.85;100.00;99183.97;5077858;28;20388;-86
2024/01/02 08:03:39;;;;;;;21.33;4.63;;;;;;;9.86;100.00;99196.44;5094870;28;20024;-87
2024/01/02 08:06:32;;;;;;;14.93;5.05;;;;;;;9.92;100.00;99190.03;5076950;28;20051;-87
2024/01/02 08:34:36;;;;;;;16.42;4.18;;;;;;;10.00;100.00;99213.16;5094956;28;20470;-87
2024/01/02 08:44:19;;;;;;;17.25;3.88;;;;;;;10.00;100.00;99197.72;5093990;28;20053;-86
2024/01/02 08:46:44;;;;;;;13.98;3.90;;;;;;;10.03;100.00;99201.81;5060267;28;20439;-86
2024/01/02 08:49:15;;;;;;;16.13;3.95;;;;;;;10.01;100.00;99191.22;5060480;28;20035;-88
2024/01/02 09:01:50;;;;;;;14.68;4.22;;;;;;;10.11;100.00;99179.69;5094481;28;20032;-88
2024/01/02 09:07:43;;;;;;;7.80;3.00;;;;;;;10.09;100.00;99181.81;5094879;28;20034;-87
2024/01/02 09:11:03;;;;;;;7.25;3.05;;;;;;;10.17;100.00;99177.84;5095047;28;20117;-87
2024/01/02 09:13:29;;;;;;;7.88;3.15;;;;;;;10.14;100.00;99164.81;5095600;28;20095;-87
2024/01/02 09:15:54;;;;;;;7.60;2.60;;;;;;;10.13;100.00;99165.91;5076173;28;20109;-86
2024/01/02 09:18:20;;;;;;;6.07;2.88;;;;;;;10.14;100.00;99168.34;5076342;28;20043;-87
2024/01/02 09:20:47;;;;;;;6.30;3.17;;;;;;;10.17;100.00;99165.13;5094231;28;20024;-86
2024/01/02 09:23:12;;;;;;;6.68;3.15;;;;;;;10.16;100.00;99154.56;5094684;28;20028;-87
2024/01/02 09:25:41;;;;;;;6.60;2.90;;;;;;;10.15;100.00;99147.47;5076313;28;20380;-88
2024/01/02 09:28:12;;;;;;;5.63;2.50;;;;;;;10.16;100.00;99149.13;5075494;28;20032;-87
2024/01/02 09:30:41;;;;;;;4.25;3.03;;;;;;;10.15;100.00;99155.63;5076523;28;20024;-86
2024/01/02 09:33:12;;;;;;;7.72;2.95;;;;;;;10.15;100.00;99151.00;5076117;28;20035;-86
2024/01/02 09:38:59;;;;;;;5.45;2.80;;;;;;;10.12;100.00;99129.84;5094290;28;20047;-86
2024/01/02 09:41:37;;;;;;;4.80;2.70;;;;;;;10.16;100.00;99146.41;5059341;28;20388;-87
2024/01/02 09:44:11;;;;;;;3.17;2.33;;;;;;;10.20;100.00;99139.41;5094202;28;20039;-87
2024/01/02 09:53:58;;;;;;;5.20;2.37;;;;;;;10.17;100.00;99139.91;5031549;28;20123;-87
2024/01/02 09:56:41;;;;;;;3.17;2.25;;;;;;;10.16;100.00;99146.41;5014714;28;20045;-87
2024/01/02 09:59:43;;;;;;;2.80;2.17;;;;;;;10.17;100.00;99137.19;5031678;28;20075;-86
2024/01/02 10:06:08;;;;;;;2.72;1.67;;;;;;;10.16;100.00;99141.00;5041703;28;20392;-86
2024/01/02 10:08:40;;;;;;;4.20;2.63;;;;;;;10.16;100.00;99149.13;5094214;28;20039;-87
2024/01/02 10:11:28;;;;;;;2.75;2.15;;;;;;;10.17;100.00;99134.47;5094103;28;20079;-87
2024/01/02 10:14:06;;;;;;;4.05;2.20;;;;;;;10.19;100.00;99141.28;5075520;28;20039;-85
2024/01/02 10:16:34;;;;;;;4.63;2.97;;;;;;;10.19;100.00;99141.28;5093678;28;20020;-86
2024/01/02 10:19:07;;;;;;;2.58;1.73;;;;;;;10.21;100.00;99126.69;5093566;28;20031;-85
2024/01/02 10:25:08;;;;;;;2.25;1.40;;;;;;;10.22;100.00;99125.63;5093733;28;20538;-85
2024/01/02 10:31:48;;;;;;;2.58;1.15;;;;;;;10.18;100.00;99109.03;5052104;28;20129;-86
2024/01/02 10:37:28;;;;;;;2.17;0.80;;;;;;;10.16;100.00;99113.91;5037009;28;20119;-86
2024/01/02 10:40:41;;;;;;;1.30;0.88;;;;;;;10.16;100.00;99112.00;5050765;28;20061;-86
2024/01/02 10:43:17;;;;;;;1.50;0.70;;;;;;;10.16;100.00;99105.78;5050937;28;20025;-86
2024/01/02 10:46:02;;;;;;;1.08;0.68;;;;;;;10.15;100.00;99088.66;5053203;28;20465;-86
2024/01/02 10:48:48;;;;;;;1.83;0.82;;;;;;;10.13;100.00;99093.53;5034180;28;20094;-86
2024/01/02 10:51:23;;;;;;;1.37;0.60;;;;;;;10.14;100.00;99092.47;5051293;28;20045;-85
2024/01/02 10:53:55;;;;;;;1.10;0.60;;;;;;;10.12;100.00;99091.91;5034762;28;20037;-85
2024/01/02 10:56:40;;;;;;;1.05;0.50;;;;;;;10.11;100.00;99084.03;5034350;28;20044;-85
2024/01/02 10:59:43;;;;;;;0.93;0.50;;;;;;;10.10;100.00;99083.22;5051007;28;20068;-85
2024/01/02 11:02:32;;;;;;;0.63;0.35;;;;;;;10.06;100.00;99086.69;5084183;28;20040;-85
2024/01/02 11:05:04;;;;;;;1.27;0.40;;;;;;;10.04;100.00;99091.53;5075501;28;20059;-84
2024/01/02 11:07:35;;;;;;;0.38;0.30;;;;;;;10.07;100.00;99066.63;5094054;28;20020;-85
2024/01/02 11:10:14;;;;;;;0.40;0.30;;;;;;;10.02;100.00;99080.94;5078623;28;20127;-85
2024/01/02 11:13:00;;;;;;;0.85;0.30;;;;;;;9.99;100.00;99062.50;5079465;28;20083;-84
2024/01/02 11:15:28;;;;;;;2.15;0.35;;;;;;;9.94;100.00;99062.44;5097464;28;20032;-85
2024/01/02 11:18:00;;;;;;;0.33;0.30;;;;;;;9.90;100.00;99059.41;5096887;28;20375;-84
2024/01/02 11:21:03;;;;;;;0.32;0.30;;;;;;;9.87;100.00;99051.81;5097166;28;20021;-85
2024/01/02 11:26:51;;;;;;;0.50;0.30;;;;;;;9.84;100.00;99039.59;5096915;28;20062;-85
2024/01/02 11:29:22;;;;;;;1.20;0.40;;;;;;;9.80;100.00;99032.22;5096596;28;20032;-85
2024/01/02 11:31:49;;;;;;;0.50;0.40;;;;;;;9.82;100.00;99043.63;5061897;28;20031;-85
2024/01/02 11:34:48;;;;;;;1.10;0.60;;;;;;;9.82;100.00;99019.25;5078756;28;20034;-85
2024/01/02 11:51:27;;;;;;;1.98;0.40;;;;;;;9.54;100.00;98991.34;5033863;28;20037;-85
2024/01/02 12:14:19;;;;;;;1.42;0.60;;;;;;;9.25;100.00;98931.19;5044064;28;20085;-85
2024/01/02 12:20:38;;;;;;;2.40;0.97;;;;;;;9.20;100.00;98901.38;5095746;28;20154;-85
2024/01/02 12:27:08;;;;;;;7.72;1.13;;;;;;;9.15;100.00;98883.19;5096041;28;20590;-85
2024/01/02 12:47:27;;;;;;;1.75;0.80;;;;;;;9.03;100.00;98812.19;5082028;28;20954;-90
2024/01/02 12:50:04;;;;;;;1.55;0.70;;;;;;;9.04;100.00;98793.00;5046240;28;20048;-87
2024/01/02 12:52:47;;;;;;;2.47;0.80;;;;;;;9.04;100.00;98797.59;5050808;28;20051;-86
2024/01/02 12:55:14;;;;;;;1.10;0.60;;;;;;;9.04;100.00;98794.91;5059973;28;20404;-85
2024/01/02 12:57:40;;;;;;;1.00;0.68;;;;;;;9.04;100.00;98784.06;5075595;28;20036;-84
2024/01/02 13:00:07;;;;;;;1.00;0.60;;;;;;;9.03;100.00;98777.03;5095296;28;20034;-85
2024/01/02 13:02:36;;;;;;;1.10;0.60;;;;;;;9.05;100.00;98778.41;5056612;28;20689;-85
2024/01/02 13:05:05;;;;;;;8.88;0.68;;;;;;;9.07;100.00;98762.72;5061845;28;20127;-86
2024/01/02 13:07:32;;;;;;;2.65;0.80;;;;;;;9.06;100.00;98771.91;5040783;28;20119;-86
2024/01/02 13:10:00;;;;;;;1.42;0.65;;;;;;;9.09;100.00;98759.75;5056157;28;20040;-84
2024/01/02 13:12:26;;;;;;;2.38;0.60;;;;;;;9.06;100.00;98744.03;5074343;28;20032;-85
2024/01/02 13:14:52;;;;;;;0.95;0.70;;;;;;;9.08;100.00;98745.44;5056168;28;20054;-85
2024/01/02 13:17:18;;;;;;;1.08;0.70;;;;;;;9.08;100.00;98733.78;5073959;28;20358;-85
2024/01/02 13:19:44;;;;;;;0.93;0.70;;;;;;;9.10;100.00;98734.34;5074016;28;20143;-85
2024/01/02 13:22:09;;;;;;;1.50;0.90;;;;;;;9.11;100.00;98725.16;5056169;28;20050;-85
2024/01/02 13:24:56;;;;;;;1.40;0.90;;;;;;;9.14;100.00;98724.66;5039982;28;20123;-84
2024/01/02 13:27:27;;;;;;;2.25;1.20;;;;;;;9.15;100.00;98720.84;5039769;28;20477;-84
2024/01/02 13:29:56;;;;;;;1.77;0.85;;;;;;;9.15;100.00;98707.31;5072434;28;20036;-85
2024/01/02 13:32:22;;;;;;;1.57;1.00;;;;;;;9.17;100.00;98721.44;5072702;28;20119;-84
2024/01/02 13:34:48;;;;;;;1.50;0.98;;;;;;;9.23;100.00;98704.16;5039126;28;20032;-85
2024/01/02 13:37:26;;;;;;;2.17;1.40;;;;;;;9.24;100.00;98696.84;5039733;28;20079;-84
2024/01/02 13:39:52;;;;;;;1.67;1.20;;;;;;;9.24;100.00;98686.00;5056384;28;20047;-84
2024/01/02 13:42:33;;;;;;;2.63;1.63;;;;;;;9.27;100.00;98696.31;5073737;28;20052;-85
2024/01/02 13:44:58;;;;;;;1.50;1.13;;;;;;;9.29;100.00;98676.06;5056707;28;20043;-85
2024/01/02 13:47:34;;;;;;;2.87;1.33;;;;;;;9.36;100.00;98681.25;5056069;28;20381;-85
2024/01/02 13:50:03;;;;;;;3.20;1.20;;;;;;;9.42;100.00;98679.38;5055473;28;20032;-84
2024/01/02 13:52:33;;;;;;;2.17;1.30;;;;;;;9.48;100.00;98670.22;5074036;28;20036;-85
2024/01/02 13:54:59;;;;;;;1.80;1.25;;;;;;;9.47;100.00;98657.75;5072787;28;20028;-85